Aérodrome :
LOGIN :

S'inscrire | Disclaimer

   EN    FR    IT 

 










Légende :    VFR   VFR Marginal   IFR   IFR Intensif   IFR Très Intensif
Visi : 
Plafond : 
>= 8 km
>= 3000ft
5 à 8 km
1000 à 3000 ft
1500m à 5 km
500 à 1000 ft
800 à 1500m
200 à 500 ft
< 800m
< 200 ft
Symboles :   Orages  Brouillard  Fortes neiges  Fortes précipitations  Vent > 20 kt
SIGMETs :   Divers  Orages  Givrage  Turbulence  Onde Orograph.  Cendres Volcan.







- Altitude de l'aérodrome : 82 ft
- Code IATA : AAR


EKAH - Aarhus Tirstrup

DERNIER METAR :
  • 202120Z AUTO 10003KT 9999NDV NCD 15/10 Q1027

METARs EXPIRÉS :
  • 202050Z AUTO 13003KT 9999NDV NCD 14/09 Q1027
  • 202020Z AUTO 13003KT 9999NDV NCD 15/08 Q1027
  • 201950Z AUTO 13004KT 9999NDV NCD 16/07 Q1027
  • 201920Z AUTO 14004KT 9999NDV NCD 18/09 Q1027
  • 201850Z AUTO 14003KT 9999NDV NCD 20/08 Q1027

TAF TAF EKAH
Valide du 20 à 18h jusqu'au 21 à 18h UTC


201701Z 2018/2118 12008KT CAVOK
Pas de NOTAMs connus pour ce terrain.



MET'MAP, la Météo Aéronautique d'un coup d'oeil ! - Copyright ORBIFLY Décembre 2007 - Disclaimer

ORBIFLY MET'MAP TEAM :

Programmation & Développement : Alexandra Zaïnal
Conception & Développement : Baudouin d'Aumeries
Co-Programmation & Développement : Marc-Olivier Méhu
Soutien technique & logistique : Manuel Goepfert

Contact : metmap@orbifly.com




SOURCES & CREDITS :

   NOAA